sensor_id;sensor_type;location;lat;lon;timestamp;P1;durP1;ratioP1;P2;durP2;ratioP2
12972;SDS011;6551;51.056;9.466;2022-12-07T00:00:53;22.83;;;12.97;;
12972;SDS011;6551;51.056;9.466;2022-12-07T00:03:32;19.27;;;11.97;;
12972;SDS011;6551;51.056;9.466;2022-12-07T00:05:59;22.20;;;13.00;;
12972;SDS011;6551;51.056;9.466;2022-12-07T00:08:26;21.90;;;14.37;;
12972;SDS011;6551;51.056;9.466;2022-12-07T00:10:52;20.37;;;12.23;;
12972;SDS011;6551;51.056;9.466;2022-12-07T00:13:18;20.57;;;12.90;;
12972;SDS011;6551;51.056;9.466;2022-12-07T00:15:44;22.80;;;14.43;;
12972;SDS011;6551;51.056;9.466;2022-12-07T00:18:10;29.23;;;15.17;;
12972;SDS011;6551;51.056;9.466;2022-12-07T00:20:36;28.83;;;16.30;;
12972;SDS011;6551;51.056;9.466;2022-12-07T00:23:02;26.70;;;16.77;;
12972;SDS011;6551;51.056;9.466;2022-12-07T00:25:29;30.00;;;17.37;;
12972;SDS011;6551;51.056;9.466;2022-12-07T00:27:55;28.07;;;16.50;;
12972;SDS011;6551;51.056;9.466;2022-12-07T00:30:22;28.17;;;16.27;;
12972;SDS011;6551;51.056;9.466;2022-12-07T00:32:48;30.77;;;17.13;;
12972;SDS011;6551;51.056;9.466;2022-12-07T00:35:14;28.53;;;15.63;;
12972;SDS011;6551;51.056;9.466;2022-12-07T00:37:40;30.97;;;16.93;;
12972;SDS011;6551;51.056;9.466;2022-12-07T00:40:06;32.67;;;17.80;;
12972;SDS011;6551;51.056;9.466;2022-12-07T00:42:33;34.13;;;18.33;;
12972;SDS011;6551;51.056;9.466;2022-12-07T00:44:59;32.33;;;18.03;;
12972;SDS011;6551;51.056;9.466;2022-12-07T00:47:25;32.77;;;18.20;;
12972;SDS011;6551;51.056;9.466;2022-12-07T00:49:51;29.50;;;16.03;;
12972;SDS011;6551;51.056;9.466;2022-12-07T00:52:17;28.67;;;16.67;;
12972;SDS011;6551;51.056;9.466;2022-12-07T00:54:43;30.17;;;17.13;;
12972;SDS011;6551;51.056;9.466;2022-12-07T00:57:09;30.80;;;17.37;;
12972;SDS011;6551;51.056;9.466;2022-12-07T00:59:35;27.30;;;16.30;;
12972;SDS011;6551;51.056;9.466;2022-12-07T01:02:01;27.03;;;16.47;;
12972;SDS011;6551;51.056;9.466;2022-12-07T01:04:27;28.13;;;15.70;;
12972;SDS011;6551;51.056;9.466;2022-12-07T01:06:54;30.67;;;17.20;;
12972;SDS011;6551;51.056;9.466;2022-12-07T01:09:20;31.87;;;18.47;;
12972;SDS011;6551;51.056;9.466;2022-12-07T01:11:46;30.43;;;15.03;;
12972;SDS011;6551;51.056;9.466;2022-12-07T01:14:12;27.97;;;16.17;;
12972;SDS011;6551;51.056;9.466;2022-12-07T01:16:38;35.10;;;18.70;;
12972;SDS011;6551;51.056;9.466;2022-12-07T01:19:05;26.37;;;15.97;;
12972;SDS011;6551;51.056;9.466;2022-12-07T01:21:32;29.73;;;16.93;;
12972;SDS011;6551;51.056;9.466;2022-12-07T01:24:01;30.13;;;16.90;;
12972;SDS011;6551;51.056;9.466;2022-12-07T01:26:27;34.90;;;16.00;;
12972;SDS011;6551;51.056;9.466;2022-12-07T01:28:53;28.07;;;16.53;;
12972;SDS011;6551;51.056;9.466;2022-12-07T01:31:21;28.93;;;16.27;;
12972;SDS011;6551;51.056;9.466;2022-12-07T01:33:50;26.43;;;14.37;;
12972;SDS011;6551;51.056;9.466;2022-12-07T01:36:19;29.27;;;16.67;;
12972;SDS011;6551;51.056;9.466;2022-12-07T01:38:48;30.43;;;16.67;;
12972;SDS011;6551;51.056;9.466;2022-12-07T01:41:17;29.43;;;16.57;;
12972;SDS011;6551;51.056;9.466;2022-12-07T01:46:38;32.30;;;17.90;;
12972;SDS011;6551;51.056;9.466;2022-12-07T01:49:06;32.83;;;18.47;;
12972;SDS011;6551;51.056;9.466;2022-12-07T01:54:35;35.77;;;18.40;;
12972;SDS011;6551;51.056;9.466;2022-12-07T01:57:01;30.17;;;17.40;;
12972;SDS011;6551;51.056;9.466;2022-12-07T01:59:31;29.77;;;15.77;;
12972;SDS011;6551;51.056;9.466;2022-12-07T02:01:58;30.13;;;16.53;;
12972;SDS011;6551;51.056;9.466;2022-12-07T02:04:26;27.97;;;16.77;;
12972;SDS011;6551;51.056;9.466;2022-12-07T02:06:54;34.17;;;18.87;;
12972;SDS011;6551;51.056;9.466;2022-12-07T02:09:21;32.30;;;17.27;;
12972;SDS011;6551;51.056;9.466;2022-12-07T02:11:47;32.20;;;18.50;;
12972;SDS011;6551;51.056;9.466;2022-12-07T02:14:14;29.93;;;17.47;;
12972;SDS011;6551;51.056;9.466;2022-12-07T02:16:43;28.63;;;16.77;;
12972;SDS011;6551;51.056;9.466;2022-12-07T02:19:22;34.00;;;18.83;;
12972;SDS011;6551;51.056;9.466;2022-12-07T02:24:47;34.03;;;17.90;;
12972;SDS011;6551;51.056;9.466;2022-12-07T02:27:28;35.50;;;18.70;;
12972;SDS011;6551;51.056;9.466;2022-12-07T02:30:04;35.67;;;18.43;;
12972;SDS011;6551;51.056;9.466;2022-12-07T02:32:55;36.23;;;19.20;;
12972;SDS011;6551;51.056;9.466;2022-12-07T02:35:28;34.77;;;18.93;;
12972;SDS011;6551;51.056;9.466;2022-12-07T02:38:14;35.57;;;19.67;;
12972;SDS011;6551;51.056;9.466;2022-12-07T02:40:57;34.13;;;18.00;;
12972;SDS011;6551;51.056;9.466;2022-12-07T02:43:36;30.53;;;17.87;;
12972;SDS011;6551;51.056;9.466;2022-12-07T02:46:11;37.17;;;18.20;;
12972;SDS011;6551;51.056;9.466;2022-12-07T02:48:40;34.60;;;19.10;;
12972;SDS011;6551;51.056;9.466;2022-12-07T02:51:08;42.43;;;19.40;;
12972;SDS011;6551;51.056;9.466;2022-12-07T02:53:38;34.63;;;16.97;;
12972;SDS011;6551;51.056;9.466;2022-12-07T02:56:09;33.97;;;18.37;;
12972;SDS011;6551;51.056;9.466;2022-12-07T03:01:48;29.27;;;16.37;;
12972;SDS011;6551;51.056;9.466;2022-12-07T03:12:29;34.70;;;19.30;;
12972;SDS011;6551;51.056;9.466;2022-12-07T03:15:06;39.17;;;20.17;;
12972;SDS011;6551;51.056;9.466;2022-12-07T03:17:37;37.80;;;20.20;;
12972;SDS011;6551;51.056;9.466;2022-12-07T03:20:07;35.43;;;19.07;;
12972;SDS011;6551;51.056;9.466;2022-12-07T03:22:37;43.10;;;20.23;;
12972;SDS011;6551;51.056;9.466;2022-12-07T03:25:08;34.63;;;19.50;;
12972;SDS011;6551;51.056;9.466;2022-12-07T03:27:47;36.60;;;19.23;;
12972;SDS011;6551;51.056;9.466;2022-12-07T03:30:22;38.07;;;20.10;;
12972;SDS011;6551;51.056;9.466;2022-12-07T03:33:06;43.93;;;20.17;;
12972;SDS011;6551;51.056;9.466;2022-12-07T03:35:49;37.70;;;19.13;;
12972;SDS011;6551;51.056;9.466;2022-12-07T03:38:24;42.03;;;21.47;;
12972;SDS011;6551;51.056;9.466;2022-12-07T03:41:40;38.67;;;19.57;;
12972;SDS011;6551;51.056;9.466;2022-12-07T03:43:48;39.53;;;20.07;;
12972;SDS011;6551;51.056;9.466;2022-12-07T03:46:25;34.70;;;19.17;;
12972;SDS011;6551;51.056;9.466;2022-12-07T03:49:02;33.90;;;17.73;;
12972;SDS011;6551;51.056;9.466;2022-12-07T03:55:15;39.43;;;18.97;;
12972;SDS011;6551;51.056;9.466;2022-12-07T03:57:22;35.67;;;19.57;;
12972;SDS011;6551;51.056;9.466;2022-12-07T03:59:50;34.20;;;18.03;;
12972;SDS011;6551;51.056;9.466;2022-12-07T04:02:18;35.20;;;19.33;;
12972;SDS011;6551;51.056;9.466;2022-12-07T04:04:44;32.67;;;18.47;;
12972;SDS011;6551;51.056;9.466;2022-12-07T04:07:11;38.30;;;20.03;;
12972;SDS011;6551;51.056;9.466;2022-12-07T04:09:37;31.97;;;18.17;;
12972;SDS011;6551;51.056;9.466;2022-12-07T04:12:04;37.47;;;20.53;;
12972;SDS011;6551;51.056;9.466;2022-12-07T04:14:30;31.77;;;16.57;;
12972;SDS011;6551;51.056;9.466;2022-12-07T04:16:57;33.50;;;17.67;;
12972;SDS011;6551;51.056;9.466;2022-12-07T04:19:31;31.93;;;16.70;;
12972;SDS011;6551;51.056;9.466;2022-12-07T04:21:59;29.67;;;16.97;;
12972;SDS011;6551;51.056;9.466;2022-12-07T04:24:26;33.17;;;18.07;;
12972;SDS011;6551;51.056;9.466;2022-12-07T04:26:53;34.93;;;18.73;;
12972;SDS011;6551;51.056;9.466;2022-12-07T04:29:19;30.33;;;16.20;;
12972;SDS011;6551;51.056;9.466;2022-12-07T04:31:46;35.67;;;19.40;;
12972;SDS011;6551;51.056;9.466;2022-12-07T04:34:13;33.43;;;19.13;;
12972;SDS011;6551;51.056;9.466;2022-12-07T04:36:40;37.03;;;18.67;;
12972;SDS011;6551;51.056;9.466;2022-12-07T04:39:07;37.40;;;20.47;;
12972;SDS011;6551;51.056;9.466;2022-12-07T04:41:41;45.20;;;25.77;;
12972;SDS011;6551;51.056;9.466;2022-12-07T04:44:08;59.97;;;34.47;;
12972;SDS011;6551;51.056;9.466;2022-12-07T04:46:39;41.63;;;25.20;;
12972;SDS011;6551;51.056;9.466;2022-12-07T04:49:06;60.60;;;35.60;;
12972;SDS011;6551;51.056;9.466;2022-12-07T04:51:32;67.60;;;39.70;;
12972;SDS011;6551;51.056;9.466;2022-12-07T04:53:58;83.00;;;47.77;;
12972;SDS011;6551;51.056;9.466;2022-12-07T04:56:24;63.27;;;32.13;;
12972;SDS011;6551;51.056;9.466;2022-12-07T04:58:51;77.57;;;38.70;;
12972;SDS011;6551;51.056;9.466;2022-12-07T05:01:18;44.93;;;24.93;;
12972;SDS011;6551;51.056;9.466;2022-12-07T05:03:45;34.97;;;20.70;;
12972;SDS011;6551;51.056;9.466;2022-12-07T05:06:11;45.70;;;26.27;;
12972;SDS011;6551;51.056;9.466;2022-12-07T05:08:38;36.80;;;20.97;;
12972;SDS011;6551;51.056;9.466;2022-12-07T05:11:05;58.33;;;30.93;;
12972;SDS011;6551;51.056;9.466;2022-12-07T05:13:33;54.60;;;27.60;;
12972;SDS011;6551;51.056;9.466;2022-12-07T05:16:00;43.70;;;23.13;;
12972;SDS011;6551;51.056;9.466;2022-12-07T05:18:26;33.17;;;21.77;;
12972;SDS011;6551;51.056;9.466;2022-12-07T05:20:52;42.40;;;23.30;;
12972;SDS011;6551;51.056;9.466;2022-12-07T05:23:18;29.80;;;18.20;;
12972;SDS011;6551;51.056;9.466;2022-12-07T05:25:44;36.13;;;20.80;;
12972;SDS011;6551;51.056;9.466;2022-12-07T05:28:11;41.20;;;22.63;;
12972;SDS011;6551;51.056;9.466;2022-12-07T05:30:37;40.20;;;22.10;;
12972;SDS011;6551;51.056;9.466;2022-12-07T05:33:03;35.00;;;19.40;;
12972;SDS011;6551;51.056;9.466;2022-12-07T05:35:30;32.93;;;20.07;;
12972;SDS011;6551;51.056;9.466;2022-12-07T05:37:56;30.37;;;17.37;;
12972;SDS011;6551;51.056;9.466;2022-12-07T05:40:23;29.03;;;16.20;;
12972;SDS011;6551;51.056;9.466;2022-12-07T05:42:49;27.17;;;16.37;;
12972;SDS011;6551;51.056;9.466;2022-12-07T05:45:15;27.13;;;16.80;;
12972;SDS011;6551;51.056;9.466;2022-12-07T05:47:41;27.60;;;16.83;;
12972;SDS011;6551;51.056;9.466;2022-12-07T05:50:07;26.20;;;15.93;;
12972;SDS011;6551;51.056;9.466;2022-12-07T05:52:33;27.50;;;16.40;;
12972;SDS011;6551;51.056;9.466;2022-12-07T05:54:59;26.73;;;16.60;;
12972;SDS011;6551;51.056;9.466;2022-12-07T05:57:25;21.50;;;13.33;;
12972;SDS011;6551;51.056;9.466;2022-12-07T05:59:52;27.93;;;17.53;;
12972;SDS011;6551;51.056;9.466;2022-12-07T06:02:18;23.60;;;14.17;;
12972;SDS011;6551;51.056;9.466;2022-12-07T06:04:44;21.33;;;12.87;;
12972;SDS011;6551;51.056;9.466;2022-12-07T06:07:12;28.63;;;19.47;;
12972;SDS011;6551;51.056;9.466;2022-12-07T06:09:39;27.70;;;16.90;;
12972;SDS011;6551;51.056;9.466;2022-12-07T06:12:05;25.73;;;15.20;;
12972;SDS011;6551;51.056;9.466;2022-12-07T06:14:52;23.37;;;14.03;;
12972;SDS011;6551;51.056;9.466;2022-12-07T06:17:18;24.83;;;13.87;;
12972;SDS011;6551;51.056;9.466;2022-12-07T06:19:44;24.37;;;14.47;;
12972;SDS011;6551;51.056;9.466;2022-12-07T06:22:10;33.20;;;17.80;;
12972;SDS011;6551;51.056;9.466;2022-12-07T06:24:37;30.00;;;18.87;;
12972;SDS011;6551;51.056;9.466;2022-12-07T06:27:04;29.90;;;16.37;;
12972;SDS011;6551;51.056;9.466;2022-12-07T06:29:31;24.80;;;15.10;;
12972;SDS011;6551;51.056;9.466;2022-12-07T06:31:57;22.17;;;14.77;;
12972;SDS011;6551;51.056;9.466;2022-12-07T06:34:24;24.97;;;14.10;;
12972;SDS011;6551;51.056;9.466;2022-12-07T06:36:51;28.33;;;15.77;;
12972;SDS011;6551;51.056;9.466;2022-12-07T06:39:19;26.90;;;16.77;;
12972;SDS011;6551;51.056;9.466;2022-12-07T06:41:46;25.43;;;14.87;;
12972;SDS011;6551;51.056;9.466;2022-12-07T06:44:13;24.80;;;13.80;;
12972;SDS011;6551;51.056;9.466;2022-12-07T06:46:39;27.27;;;14.73;;
12972;SDS011;6551;51.056;9.466;2022-12-07T06:49:06;24.80;;;15.37;;
12972;SDS011;6551;51.056;9.466;2022-12-07T06:51:32;27.80;;;15.93;;
12972;SDS011;6551;51.056;9.466;2022-12-07T06:54:01;29.93;;;16.70;;
12972;SDS011;6551;51.056;9.466;2022-12-07T06:56:28;31.03;;;17.17;;
12972;SDS011;6551;51.056;9.466;2022-12-07T06:58:54;28.90;;;16.47;;
12972;SDS011;6551;51.056;9.466;2022-12-07T07:01:20;28.63;;;16.00;;
12972;SDS011;6551;51.056;9.466;2022-12-07T07:03:46;28.13;;;16.90;;
12972;SDS011;6551;51.056;9.466;2022-12-07T07:06:13;28.37;;;16.67;;
12972;SDS011;6551;51.056;9.466;2022-12-07T07:08:39;27.83;;;15.47;;
12972;SDS011;6551;51.056;9.466;2022-12-07T07:11:06;28.83;;;17.20;;
12972;SDS011;6551;51.056;9.466;2022-12-07T07:13:33;32.67;;;17.47;;
12972;SDS011;6551;51.056;9.466;2022-12-07T07:15:59;26.23;;;14.37;;
12972;SDS011;6551;51.056;9.466;2022-12-07T07:18:25;20.67;;;12.03;;
12972;SDS011;6551;51.056;9.466;2022-12-07T07:20:52;25.67;;;14.43;;
12972;SDS011;6551;51.056;9.466;2022-12-07T07:23:19;22.93;;;14.20;;
12972;SDS011;6551;51.056;9.466;2022-12-07T07:25:46;20.83;;;11.87;;
12972;SDS011;6551;51.056;9.466;2022-12-07T07:28:12;25.67;;;14.50;;
12972;SDS011;6551;51.056;9.466;2022-12-07T07:30:38;17.80;;;11.20;;
12972;SDS011;6551;51.056;9.466;2022-12-07T07:33:05;20.53;;;11.10;;
12972;SDS011;6551;51.056;9.466;2022-12-07T07:35:32;23.40;;;13.53;;
12972;SDS011;6551;51.056;9.466;2022-12-07T07:37:59;18.67;;;11.80;;
12972;SDS011;6551;51.056;9.466;2022-12-07T07:40:26;14.23;;;10.30;;
12972;SDS011;6551;51.056;9.466;2022-12-07T07:42:54;24.83;;;14.07;;
12972;SDS011;6551;51.056;9.466;2022-12-07T07:45:21;25.20;;;12.93;;
12972;SDS011;6551;51.056;9.466;2022-12-07T07:47:48;30.73;;;17.40;;
12972;SDS011;6551;51.056;9.466;2022-12-07T07:50:14;33.27;;;19.93;;
12972;SDS011;6551;51.056;9.466;2022-12-07T07:52:41;27.20;;;14.93;;
12972;SDS011;6551;51.056;9.466;2022-12-07T07:55:07;30.57;;;16.83;;
12972;SDS011;6551;51.056;9.466;2022-12-07T07:57:34;31.00;;;19.53;;
12972;SDS011;6551;51.056;9.466;2022-12-07T08:00:01;26.13;;;15.33;;
12972;SDS011;6551;51.056;9.466;2022-12-07T08:02:31;32.70;;;19.53;;
12972;SDS011;6551;51.056;9.466;2022-12-07T08:04:57;61.97;;;30.97;;
12972;SDS011;6551;51.056;9.466;2022-12-07T08:07:23;90.90;;;45.90;;
12972;SDS011;6551;51.056;9.466;2022-12-07T08:09:49;37.60;;;22.83;;
12972;SDS011;6551;51.056;9.466;2022-12-07T08:12:15;82.97;;;41.03;;
12972;SDS011;6551;51.056;9.466;2022-12-07T08:14:41;47.83;;;25.90;;
12972;SDS011;6551;51.056;9.466;2022-12-07T08:17:07;48.97;;;26.73;;
12972;SDS011;6551;51.056;9.466;2022-12-07T08:19:33;28.53;;;15.90;;
12972;SDS011;6551;51.056;9.466;2022-12-07T08:21:59;28.63;;;15.20;;
12972;SDS011;6551;51.056;9.466;2022-12-07T08:24:25;24.87;;;15.13;;
12972;SDS011;6551;51.056;9.466;2022-12-07T08:26:52;34.70;;;20.40;;
12972;SDS011;6551;51.056;9.466;2022-12-07T08:29:18;23.07;;;13.67;;
12972;SDS011;6551;51.056;9.466;2022-12-07T08:31:44;23.23;;;15.03;;
12972;SDS011;6551;51.056;9.466;2022-12-07T08:34:11;33.13;;;18.87;;
12972;SDS011;6551;51.056;9.466;2022-12-07T08:36:37;21.83;;;14.00;;
12972;SDS011;6551;51.056;9.466;2022-12-07T08:39:03;22.43;;;12.87;;
12972;SDS011;6551;51.056;9.466;2022-12-07T08:41:30;21.87;;;12.93;;
12972;SDS011;6551;51.056;9.466;2022-12-07T08:43:57;20.90;;;12.60;;
12972;SDS011;6551;51.056;9.466;2022-12-07T08:46:24;24.77;;;14.33;;
12972;SDS011;6551;51.056;9.466;2022-12-07T08:49:04;21.63;;;14.70;;
12972;SDS011;6551;51.056;9.466;2022-12-07T08:51:34;21.90;;;12.50;;
12972;SDS011;6551;51.056;9.466;2022-12-07T08:54:01;34.43;;;19.20;;
12972;SDS011;6551;51.056;9.466;2022-12-07T08:56:34;75.73;;;34.83;;
12972;SDS011;6551;51.056;9.466;2022-12-07T08:59:00;81.97;;;37.60;;
12972;SDS011;6551;51.056;9.466;2022-12-07T09:01:27;31.07;;;17.27;;
12972;SDS011;6551;51.056;9.466;2022-12-07T09:03:54;36.10;;;18.80;;
12972;SDS011;6551;51.056;9.466;2022-12-07T09:06:20;21.33;;;12.30;;
12972;SDS011;6551;51.056;9.466;2022-12-07T09:08:47;19.07;;;12.30;;
12972;SDS011;6551;51.056;9.466;2022-12-07T09:11:16;27.97;;;14.83;;
12972;SDS011;6551;51.056;9.466;2022-12-07T09:13:42;23.50;;;13.27;;
12972;SDS011;6551;51.056;9.466;2022-12-07T09:16:08;17.27;;;11.17;;
12972;SDS011;6551;51.056;9.466;2022-12-07T09:18:34;15.70;;;9.40;;
12972;SDS011;6551;51.056;9.466;2022-12-07T09:21:01;16.77;;;9.00;;
12972;SDS011;6551;51.056;9.466;2022-12-07T09:23:27;12.83;;;8.20;;
12972;SDS011;6551;51.056;9.466;2022-12-07T09:25:53;12.37;;;8.33;;
12972;SDS011;6551;51.056;9.466;2022-12-07T09:28:19;14.60;;;9.37;;
12972;SDS011;6551;51.056;9.466;2022-12-07T09:30:46;12.90;;;8.30;;
12972;SDS011;6551;51.056;9.466;2022-12-07T09:33:13;13.70;;;9.23;;
12972;SDS011;6551;51.056;9.466;2022-12-07T09:35:45;14.53;;;9.50;;
12972;SDS011;6551;51.056;9.466;2022-12-07T09:38:15;15.87;;;7.77;;
12972;SDS011;6551;51.056;9.466;2022-12-07T09:40:42;14.80;;;9.83;;
12972;SDS011;6551;51.056;9.466;2022-12-07T09:43:16;12.37;;;7.83;;
12972;SDS011;6551;51.056;9.466;2022-12-07T09:45:45;15.23;;;8.40;;
12972;SDS011;6551;51.056;9.466;2022-12-07T09:48:18;13.70;;;7.83;;
12972;SDS011;6551;51.056;9.466;2022-12-07T09:50:57;14.13;;;7.77;;
12972;SDS011;6551;51.056;9.466;2022-12-07T09:53:26;12.80;;;7.60;;
12972;SDS011;6551;51.056;9.466;2022-12-07T09:55:54;12.20;;;7.13;;
12972;SDS011;6551;51.056;9.466;2022-12-07T09:58:25;9.77;;;6.67;;
12972;SDS011;6551;51.056;9.466;2022-12-07T10:00:55;13.40;;;6.87;;
12972;SDS011;6551;51.056;9.466;2022-12-07T10:03:26;13.53;;;7.87;;
12972;SDS011;6551;51.056;9.466;2022-12-07T10:05:53;8.33;;;5.87;;
12972;SDS011;6551;51.056;9.466;2022-12-07T10:08:20;14.17;;;8.53;;
12972;SDS011;6551;51.056;9.466;2022-12-07T10:10:48;13.70;;;8.97;;
12972;SDS011;6551;51.056;9.466;2022-12-07T10:13:21;14.90;;;10.43;;
12972;SDS011;6551;51.056;9.466;2022-12-07T10:15:58;19.13;;;9.90;;
12972;SDS011;6551;51.056;9.466;2022-12-07T10:18:29;15.80;;;9.90;;
12972;SDS011;6551;51.056;9.466;2022-12-07T10:21:10;10.97;;;5.03;;
12972;SDS011;6551;51.056;9.466;2022-12-07T10:24:03;9.20;;;5.43;;
12972;SDS011;6551;51.056;9.466;2022-12-07T10:26:32;7.60;;;4.20;;
12972;SDS011;6551;51.056;9.466;2022-12-07T10:29:00;7.03;;;3.90;;
12972;SDS011;6551;51.056;9.466;2022-12-07T10:31:36;9.37;;;4.90;;
12972;SDS011;6551;51.056;9.466;2022-12-07T10:34:12;13.00;;;6.43;;
12972;SDS011;6551;51.056;9.466;2022-12-07T10:36:54;15.60;;;7.87;;
12972;SDS011;6551;51.056;9.466;2022-12-07T10:39:42;7.83;;;4.80;;
12972;SDS011;6551;51.056;9.466;2022-12-07T10:42:18;7.00;;;3.93;;
12972;SDS011;6551;51.056;9.466;2022-12-07T10:44:48;8.60;;;4.10;;
12972;SDS011;6551;51.056;9.466;2022-12-07T10:50:39;14.20;;;8.80;;
12972;SDS011;6551;51.056;9.466;2022-12-07T10:59:02;17.43;;;10.07;;
12972;SDS011;6551;51.056;9.466;2022-12-07T11:04:57;14.97;;;9.13;;
12972;SDS011;6551;51.056;9.466;2022-12-07T11:10:28;13.30;;;7.33;;
12972;SDS011;6551;51.056;9.466;2022-12-07T11:13:31;10.93;;;6.63;;
12972;SDS011;6551;51.056;9.466;2022-12-07T11:16:16;11.57;;;5.53;;
12972;SDS011;6551;51.056;9.466;2022-12-07T11:24:19;8.27;;;5.43;;
12972;SDS011;6551;51.056;9.466;2022-12-07T11:32:43;7.00;;;3.57;;
12972;SDS011;6551;51.056;9.466;2022-12-07T11:38:17;6.43;;;4.07;;
12972;SDS011;6551;51.056;9.466;2022-12-07T11:40:48;7.97;;;4.50;;
12972;SDS011;6551;51.056;9.466;2022-12-07T11:43:23;10.70;;;5.47;;
12972;SDS011;6551;51.056;9.466;2022-12-07T11:45:58;8.03;;;4.50;;
12972;SDS011;6551;51.056;9.466;2022-12-07T11:48:45;6.87;;;3.37;;
12972;SDS011;6551;51.056;9.466;2022-12-07T11:51:22;10.10;;;6.07;;
12972;SDS011;6551;51.056;9.466;2022-12-07T11:54:11;14.50;;;7.63;;
12972;SDS011;6551;51.056;9.466;2022-12-07T11:57:02;17.13;;;10.40;;
12972;SDS011;6551;51.056;9.466;2022-12-07T11:59:39;7.37;;;5.00;;
12972;SDS011;6551;51.056;9.466;2022-12-07T12:02:15;4.73;;;2.20;;
12972;SDS011;6551;51.056;9.466;2022-12-07T12:05:21;6.87;;;4.10;;
12972;SDS011;6551;51.056;9.466;2022-12-07T12:07:51;6.23;;;3.20;;
12972;SDS011;6551;51.056;9.466;2022-12-07T12:10:56;5.50;;;2.83;;
12972;SDS011;6551;51.056;9.466;2022-12-07T12:16:20;6.33;;;3.13;;
12972;SDS011;6551;51.056;9.466;2022-12-07T12:21:47;9.93;;;5.73;;
12972;SDS011;6551;51.056;9.466;2022-12-07T12:24:19;10.40;;;4.10;;
12972;SDS011;6551;51.056;9.466;2022-12-07T12:26:51;4.00;;;2.67;;
12972;SDS011;6551;51.056;9.466;2022-12-07T12:29:29;7.80;;;3.03;;
12972;SDS011;6551;51.056;9.466;2022-12-07T12:32:04;4.23;;;2.00;;
12972;SDS011;6551;51.056;9.466;2022-12-07T12:35:36;4.40;;;2.00;;
12972;SDS011;6551;51.056;9.466;2022-12-07T12:37:48;10.53;;;4.57;;
12972;SDS011;6551;51.056;9.466;2022-12-07T12:42:47;9.00;;;4.17;;
12972;SDS011;6551;51.056;9.466;2022-12-07T12:47:56;11.70;;;6.37;;
12972;SDS011;6551;51.056;9.466;2022-12-07T12:53:15;4.80;;;2.93;;
12972;SDS011;6551;51.056;9.466;2022-12-07T12:55:51;6.00;;;2.40;;
12972;SDS011;6551;51.056;9.466;2022-12-07T12:58:41;3.10;;;1.80;;
12972;SDS011;6551;51.056;9.466;2022-12-07T13:04:21;5.27;;;1.83;;
12972;SDS011;6551;51.056;9.466;2022-12-07T13:06:51;5.93;;;2.43;;
12972;SDS011;6551;51.056;9.466;2022-12-07T13:11:58;5.07;;;2.50;;
12972;SDS011;6551;51.056;9.466;2022-12-07T13:20:04;4.63;;;2.73;;
12972;SDS011;6551;51.056;9.466;2022-12-07T13:25:05;45.83;;;22.60;;
12972;SDS011;6551;51.056;9.466;2022-12-07T13:27:37;13.33;;;6.23;;
12972;SDS011;6551;51.056;9.466;2022-12-07T13:30:18;17.10;;;9.53;;
12972;SDS011;6551;51.056;9.466;2022-12-07T13:32:53;14.67;;;8.83;;
12972;SDS011;6551;51.056;9.466;2022-12-07T13:35:27;9.57;;;4.10;;
12972;SDS011;6551;51.056;9.466;2022-12-07T13:37:57;12.60;;;7.73;;
12972;SDS011;6551;51.056;9.466;2022-12-07T13:40:24;16.77;;;8.83;;
12972;SDS011;6551;51.056;9.466;2022-12-07T13:42:57;8.13;;;2.83;;
12972;SDS011;6551;51.056;9.466;2022-12-07T13:48:26;10.83;;;5.70;;
12972;SDS011;6551;51.056;9.466;2022-12-07T13:50:59;9.37;;;4.27;;
12972;SDS011;6551;51.056;9.466;2022-12-07T13:53:27;16.27;;;8.60;;
12972;SDS011;6551;51.056;9.466;2022-12-07T13:55:56;8.43;;;5.63;;
12972;SDS011;6551;51.056;9.466;2022-12-07T13:58:23;7.53;;;4.67;;
12972;SDS011;6551;51.056;9.466;2022-12-07T14:00:51;13.57;;;5.33;;
12972;SDS011;6551;51.056;9.466;2022-12-07T14:06:02;14.83;;;7.73;;
12972;SDS011;6551;51.056;9.466;2022-12-07T14:08:30;34.80;;;17.60;;
12972;SDS011;6551;51.056;9.466;2022-12-07T14:10:56;24.60;;;12.87;;
12972;SDS011;6551;51.056;9.466;2022-12-07T14:13:31;21.17;;;11.63;;
12972;SDS011;6551;51.056;9.466;2022-12-07T14:16:00;10.40;;;6.13;;
12972;SDS011;6551;51.056;9.466;2022-12-07T14:18:43;15.37;;;9.27;;
12972;SDS011;6551;51.056;9.466;2022-12-07T14:23:35;16.10;;;9.67;;
12972;SDS011;6551;51.056;9.466;2022-12-07T14:28:40;12.70;;;6.90;;
12972;SDS011;6551;51.056;9.466;2022-12-07T14:31:18;13.27;;;6.10;;
12972;SDS011;6551;51.056;9.466;2022-12-07T14:33:49;17.43;;;8.03;;
12972;SDS011;6551;51.056;9.466;2022-12-07T14:36:15;11.23;;;6.17;;
12972;SDS011;6551;51.056;9.466;2022-12-07T14:38:42;9.70;;;5.50;;
12972;SDS011;6551;51.056;9.466;2022-12-07T14:41:15;13.63;;;7.03;;
12972;SDS011;6551;51.056;9.466;2022-12-07T14:44:12;8.77;;;5.50;;
12972;SDS011;6551;51.056;9.466;2022-12-07T14:46:38;5.03;;;2.00;;
12972;SDS011;6551;51.056;9.466;2022-12-07T14:49:04;12.40;;;5.43;;
12972;SDS011;6551;51.056;9.466;2022-12-07T14:51:30;6.30;;;4.00;;
12972;SDS011;6551;51.056;9.466;2022-12-07T14:53:58;5.77;;;2.17;;
12972;SDS011;6551;51.056;9.466;2022-12-07T14:56:24;2.90;;;2.13;;
12972;SDS011;6551;51.056;9.466;2022-12-07T14:58:50;4.70;;;3.00;;
12972;SDS011;6551;51.056;9.466;2022-12-07T15:01:16;7.87;;;3.13;;
12972;SDS011;6551;51.056;9.466;2022-12-07T15:03:43;6.43;;;2.23;;
12972;SDS011;6551;51.056;9.466;2022-12-07T15:06:18;7.67;;;2.33;;
12972;SDS011;6551;51.056;9.466;2022-12-07T15:08:44;7.80;;;3.07;;
12972;SDS011;6551;51.056;9.466;2022-12-07T15:11:15;5.57;;;2.97;;
12972;SDS011;6551;51.056;9.466;2022-12-07T15:13:42;7.70;;;4.17;;
12972;SDS011;6551;51.056;9.466;2022-12-07T15:16:27;5.70;;;2.73;;
12972;SDS011;6551;51.056;9.466;2022-12-07T15:18:53;9.17;;;3.50;;
12972;SDS011;6551;51.056;9.466;2022-12-07T15:21:20;5.63;;;3.00;;
12972;SDS011;6551;51.056;9.466;2022-12-07T15:23:46;5.17;;;3.13;;
12972;SDS011;6551;51.056;9.466;2022-12-07T15:26:12;5.33;;;2.87;;
12972;SDS011;6551;51.056;9.466;2022-12-07T15:28:39;10.07;;;3.13;;
12972;SDS011;6551;51.056;9.466;2022-12-07T15:31:15;5.53;;;2.30;;
12972;SDS011;6551;51.056;9.466;2022-12-07T15:33:42;6.27;;;3.00;;
12972;SDS011;6551;51.056;9.466;2022-12-07T15:36:20;7.53;;;4.43;;
12972;SDS011;6551;51.056;9.466;2022-12-07T15:38:48;18.20;;;7.67;;
12972;SDS011;6551;51.056;9.466;2022-12-07T15:41:15;10.37;;;5.13;;
12972;SDS011;6551;51.056;9.466;2022-12-07T15:43:41;7.17;;;3.80;;
12972;SDS011;6551;51.056;9.466;2022-12-07T15:46:33;6.47;;;3.10;;
12972;SDS011;6551;51.056;9.466;2022-12-07T15:49:02;4.40;;;3.17;;
12972;SDS011;6551;51.056;9.466;2022-12-07T15:51:30;8.37;;;3.57;;
12972;SDS011;6551;51.056;9.466;2022-12-07T15:53:57;5.07;;;3.43;;
12972;SDS011;6551;51.056;9.466;2022-12-07T15:56:23;7.33;;;3.57;;
12972;SDS011;6551;51.056;9.466;2022-12-07T15:58:49;8.47;;;3.60;;
12972;SDS011;6551;51.056;9.466;2022-12-07T16:01:16;7.60;;;4.20;;
12972;SDS011;6551;51.056;9.466;2022-12-07T16:03:44;22.80;;;11.63;;
12972;SDS011;6551;51.056;9.466;2022-12-07T16:06:11;18.60;;;10.43;;
12972;SDS011;6551;51.056;9.466;2022-12-07T16:08:43;13.07;;;7.40;;
12972;SDS011;6551;51.056;9.466;2022-12-07T16:11:11;18.90;;;9.00;;
12972;SDS011;6551;51.056;9.466;2022-12-07T16:13:37;10.37;;;6.93;;
12972;SDS011;6551;51.056;9.466;2022-12-07T16:16:05;8.73;;;6.30;;
12972;SDS011;6551;51.056;9.466;2022-12-07T16:18:33;9.40;;;4.90;;
12972;SDS011;6551;51.056;9.466;2022-12-07T16:21:00;7.87;;;4.20;;
12972;SDS011;6551;51.056;9.466;2022-12-07T16:23:26;7.73;;;4.27;;
12972;SDS011;6551;51.056;9.466;2022-12-07T16:25:53;4.23;;;2.90;;
12972;SDS011;6551;51.056;9.466;2022-12-07T16:28:19;3.00;;;2.70;;
12972;SDS011;6551;51.056;9.466;2022-12-07T16:30:45;4.83;;;3.30;;